sensor_id;sensor_type;location;lat;lon;timestamp;P1;durP1;ratioP1;P2;durP2;ratioP2
16967;SDS011;64862;54.398;10.126;2023-04-03T00:02:23;6.25;;;2.58;;
16967;SDS011;64862;54.398;10.126;2023-04-03T00:12:27;5.45;;;2.55;;
16967;SDS011;64862;54.398;10.126;2023-04-03T00:22:29;6.88;;;2.22;;
16967;SDS011;64862;54.398;10.126;2023-04-03T00:32:32;6.30;;;2.20;;
16967;SDS011;64862;54.398;10.126;2023-04-03T00:52:39;6.15;;;2.17;;
16967;SDS011;64862;54.398;10.126;2023-04-03T01:02:41;9.18;;;2.30;;
16967;SDS011;64862;54.398;10.126;2023-04-03T01:12:47;7.45;;;2.00;;
16967;SDS011;64862;54.398;10.126;2023-04-03T01:22:52;6.00;;;2.08;;
16967;SDS011;64862;54.398;10.126;2023-04-03T01:33:02;7.70;;;2.22;;
16967;SDS011;64862;54.398;10.126;2023-04-03T01:43:04;3.72;;;1.40;;
16967;SDS011;64862;54.398;10.126;2023-04-03T01:53:08;4.43;;;1.48;;
16967;SDS011;64862;54.398;10.126;2023-04-03T02:03:10;4.20;;;1.48;;
16967;SDS011;64862;54.398;10.126;2023-04-03T02:13:13;4.45;;;1.73;;
16967;SDS011;64862;54.398;10.126;2023-04-03T02:23:16;6.18;;;1.45;;
16967;SDS011;64862;54.398;10.126;2023-04-03T02:33:19;7.50;;;1.52;;
16967;SDS011;64862;54.398;10.126;2023-04-03T02:43:21;6.47;;;1.50;;
16967;SDS011;64862;54.398;10.126;2023-04-03T02:53:25;4.50;;;1.42;;
16967;SDS011;64862;54.398;10.126;2023-04-03T03:03:27;8.43;;;2.00;;
16967;SDS011;64862;54.398;10.126;2023-04-03T03:13:31;5.90;;;1.63;;
16967;SDS011;64862;54.398;10.126;2023-04-03T03:23:33;6.13;;;1.50;;
16967;SDS011;64862;54.398;10.126;2023-04-03T03:33:36;4.60;;;1.50;;
16967;SDS011;64862;54.398;10.126;2023-04-03T03:43:38;5.05;;;1.48;;
16967;SDS011;64862;54.398;10.126;2023-04-03T03:53:43;4.15;;;1.80;;
16967;SDS011;64862;54.398;10.126;2023-04-03T04:03:48;6.20;;;2.20;;
16967;SDS011;64862;54.398;10.126;2023-04-03T04:13:56;8.43;;;2.42;;
16967;SDS011;64862;54.398;10.126;2023-04-03T04:24:00;5.65;;;2.42;;
16967;SDS011;64862;54.398;10.126;2023-04-03T04:34:04;6.65;;;2.33;;
16967;SDS011;64862;54.398;10.126;2023-04-03T04:44:07;6.15;;;2.20;;
16967;SDS011;64862;54.398;10.126;2023-04-03T04:54:11;9.25;;;2.80;;
16967;SDS011;64862;54.398;10.126;2023-04-03T05:04:14;6.38;;;2.65;;
16967;SDS011;64862;54.398;10.126;2023-04-03T05:14:19;5.55;;;2.75;;
16967;SDS011;64862;54.398;10.126;2023-04-03T05:24:21;7.18;;;2.60;;
16967;SDS011;64862;54.398;10.126;2023-04-03T05:34:25;8.48;;;3.38;;
16967;SDS011;64862;54.398;10.126;2023-04-03T05:44:29;8.82;;;3.10;;
16967;SDS011;64862;54.398;10.126;2023-04-03T05:54:32;21.00;;;10.18;;
16967;SDS011;64862;54.398;10.126;2023-04-03T06:04:41;11.60;;;3.90;;
16967;SDS011;64862;54.398;10.126;2023-04-03T06:14:44;15.57;;;6.72;;
16967;SDS011;64862;54.398;10.126;2023-04-03T06:24:48;8.90;;;3.40;;
16967;SDS011;64862;54.398;10.126;2023-04-03T06:34:51;7.43;;;2.88;;
16967;SDS011;64862;54.398;10.126;2023-04-03T06:44:53;8.70;;;2.60;;
16967;SDS011;64862;54.398;10.126;2023-04-03T06:54:57;8.95;;;2.30;;
16967;SDS011;64862;54.398;10.126;2023-04-03T07:04:59;9.43;;;2.95;;
16967;SDS011;64862;54.398;10.126;2023-04-03T07:15:03;6.25;;;2.85;;
16967;SDS011;64862;54.398;10.126;2023-04-03T07:25:06;7.95;;;2.80;;
16967;SDS011;64862;54.398;10.126;2023-04-03T07:35:10;12.23;;;1.90;;
16967;SDS011;64862;54.398;10.126;2023-04-03T07:45:12;5.38;;;1.10;;
16967;SDS011;64862;54.398;10.126;2023-04-03T07:55:15;6.38;;;1.15;;
16967;SDS011;64862;54.398;10.126;2023-04-03T08:05:17;3.97;;;0.77;;
16967;SDS011;64862;54.398;10.126;2023-04-03T08:15:21;2.88;;;0.75;;
16967;SDS011;64862;54.398;10.126;2023-04-03T08:25:23;4.00;;;0.85;;
16967;SDS011;64862;54.398;10.126;2023-04-03T08:35:26;3.22;;;0.65;;
16967;SDS011;64862;54.398;10.126;2023-04-03T08:45:31;5.28;;;1.35;;
16967;SDS011;64862;54.398;10.126;2023-04-03T09:05:48;5.47;;;1.00;;
16967;SDS011;64862;54.398;10.126;2023-04-03T09:25:58;3.40;;;1.10;;
16967;SDS011;64862;54.398;10.126;2023-04-03T09:36:06;4.63;;;1.05;;
16967;SDS011;64862;54.398;10.126;2023-04-03T09:56:36;5.03;;;1.20;;
16967;SDS011;64862;54.398;10.126;2023-04-03T10:16:49;5.93;;;0.88;;
16967;SDS011;64862;54.398;10.126;2023-04-03T10:26:58;4.25;;;0.98;;
16967;SDS011;64862;54.398;10.126;2023-04-03T10:37:13;4.82;;;1.42;;
16967;SDS011;64862;54.398;10.126;2023-04-03T10:47:24;4.47;;;0.70;;
16967;SDS011;64862;54.398;10.126;2023-04-03T10:57:35;2.30;;;0.68;;
16967;SDS011;64862;54.398;10.126;2023-04-03T11:07:38;2.90;;;0.52;;
16967;SDS011;64862;54.398;10.126;2023-04-03T11:47:59;3.97;;;0.63;;
16967;SDS011;64862;54.398;10.126;2023-04-03T11:58:10;4.65;;;0.65;;
16967;SDS011;64862;54.398;10.126;2023-04-03T12:08:23;5.80;;;0.90;;
16967;SDS011;64862;54.398;10.126;2023-04-03T12:29:10;5.35;;;0.80;;
16967;SDS011;64862;54.398;10.126;2023-04-03T12:39:32;4.90;;;0.88;;
16967;SDS011;64862;54.398;10.126;2023-04-03T12:49:43;3.00;;;0.77;;
16967;SDS011;64862;54.398;10.126;2023-04-03T12:59:47;4.53;;;1.13;;
16967;SDS011;64862;54.398;10.126;2023-04-03T13:09:56;5.13;;;0.73;;
16967;SDS011;64862;54.398;10.126;2023-04-03T13:20:10;3.13;;;0.68;;
16967;SDS011;64862;54.398;10.126;2023-04-03T13:30:20;1.93;;;0.63;;
16967;SDS011;64862;54.398;10.126;2023-04-03T13:40:27;5.05;;;0.88;;
16967;SDS011;64862;54.398;10.126;2023-04-03T13:50:29;6.45;;;1.00;;
16967;SDS011;64862;54.398;10.126;2023-04-03T14:00:47;4.45;;;0.80;;
16967;SDS011;64862;54.398;10.126;2023-04-03T14:10:52;5.93;;;0.90;;
16967;SDS011;64862;54.398;10.126;2023-04-03T14:20:56;4.63;;;1.05;;
16967;SDS011;64862;54.398;10.126;2023-04-03T14:30:58;3.97;;;1.05;;
16967;SDS011;64862;54.398;10.126;2023-04-03T14:41:02;4.57;;;0.80;;
16967;SDS011;64862;54.398;10.126;2023-04-03T14:51:04;4.20;;;0.80;;
16967;SDS011;64862;54.398;10.126;2023-04-03T15:01:09;6.63;;;1.10;;
16967;SDS011;64862;54.398;10.126;2023-04-03T15:11:12;4.35;;;1.08;;
16967;SDS011;64862;54.398;10.126;2023-04-03T15:21:16;3.90;;;0.90;;
16967;SDS011;64862;54.398;10.126;2023-04-03T15:31:18;5.32;;;0.98;;
16967;SDS011;64862;54.398;10.126;2023-04-03T15:41:21;4.32;;;1.15;;
16967;SDS011;64862;54.398;10.126;2023-04-03T15:51:23;3.88;;;1.20;;
16967;SDS011;64862;54.398;10.126;2023-04-03T16:01:26;3.17;;;0.80;;
16967;SDS011;64862;54.398;10.126;2023-04-03T16:11:29;4.47;;;0.90;;
16967;SDS011;64862;54.398;10.126;2023-04-03T16:21:32;3.50;;;1.00;;
16967;SDS011;64862;54.398;10.126;2023-04-03T16:31:34;4.30;;;1.10;;
16967;SDS011;64862;54.398;10.126;2023-04-03T16:41:38;5.60;;;0.88;;
16967;SDS011;64862;54.398;10.126;2023-04-03T16:51:40;3.17;;;0.82;;
16967;SDS011;64862;54.398;10.126;2023-04-03T17:01:44;4.45;;;0.80;;
16967;SDS011;64862;54.398;10.126;2023-04-03T17:11:46;3.42;;;0.75;;
16967;SDS011;64862;54.398;10.126;2023-04-03T17:21:49;6.68;;;1.25;;
16967;SDS011;64862;54.398;10.126;2023-04-03T17:31:52;5.38;;;1.50;;
16967;SDS011;64862;54.398;10.126;2023-04-03T17:41:55;8.15;;;2.70;;
16967;SDS011;64862;54.398;10.126;2023-04-03T17:51:57;10.00;;;5.05;;
16967;SDS011;64862;54.398;10.126;2023-04-03T18:02:01;8.35;;;3.83;;
16967;SDS011;64862;54.398;10.126;2023-04-03T18:12:03;12.07;;;4.57;;
16967;SDS011;64862;54.398;10.126;2023-04-03T18:22:10;8.35;;;2.90;;
16967;SDS011;64862;54.398;10.126;2023-04-03T18:32:15;5.53;;;1.27;;
16967;SDS011;64862;54.398;10.126;2023-04-03T18:42:20;6.03;;;1.60;;
16967;SDS011;64862;54.398;10.126;2023-04-03T18:52:25;6.03;;;1.90;;
16967;SDS011;64862;54.398;10.126;2023-04-03T19:02:28;5.95;;;1.88;;
16967;SDS011;64862;54.398;10.126;2023-04-03T19:12:30;6.63;;;2.00;;
16967;SDS011;64862;54.398;10.126;2023-04-03T19:22:33;6.80;;;2.33;;
16967;SDS011;64862;54.398;10.126;2023-04-03T19:32:36;14.15;;;4.75;;
16967;SDS011;64862;54.398;10.126;2023-04-03T19:42:39;6.78;;;2.33;;
16967;SDS011;64862;54.398;10.126;2023-04-03T19:52:42;9.95;;;3.75;;
16967;SDS011;64862;54.398;10.126;2023-04-03T20:02:45;8.30;;;2.00;;
16967;SDS011;64862;54.398;10.126;2023-04-03T20:12:47;5.45;;;1.83;;
16967;SDS011;64862;54.398;10.126;2023-04-03T20:22:51;7.80;;;2.20;;
16967;SDS011;64862;54.398;10.126;2023-04-03T20:32:56;5.90;;;2.60;;
16967;SDS011;64862;54.398;10.126;2023-04-03T20:42:59;11.48;;;3.72;;
16967;SDS011;64862;54.398;10.126;2023-04-03T20:53:02;9.85;;;3.33;;
16967;SDS011;64862;54.398;10.126;2023-04-03T21:03:05;6.82;;;2.72;;
16967;SDS011;64862;54.398;10.126;2023-04-03T21:23:48;6.35;;;1.50;;
16967;SDS011;64862;54.398;10.126;2023-04-03T21:33:51;5.93;;;1.60;;
16967;SDS011;64862;54.398;10.126;2023-04-03T21:43:54;6.40;;;1.95;;
16967;SDS011;64862;54.398;10.126;2023-04-03T21:53:56;4.70;;;1.48;;
16967;SDS011;64862;54.398;10.126;2023-04-03T22:03:59;5.65;;;1.80;;
16967;SDS011;64862;54.398;10.126;2023-04-03T22:14:02;5.28;;;1.63;;
16967;SDS011;64862;54.398;10.126;2023-04-03T22:24:05;7.80;;;1.67;;
16967;SDS011;64862;54.398;10.126;2023-04-03T22:34:07;5.13;;;1.58;;
16967;SDS011;64862;54.398;10.126;2023-04-03T22:44:11;5.10;;;1.60;;
16967;SDS011;64862;54.398;10.126;2023-04-03T22:54:13;4.45;;;1.10;;
16967;SDS011;64862;54.398;10.126;2023-04-03T23:04:17;4.75;;;1.30;;
16967;SDS011;64862;54.398;10.126;2023-04-03T23:14:19;5.63;;;1.25;;
16967;SDS011;64862;54.398;10.126;2023-04-03T23:24:23;3.17;;;1.17;;
16967;SDS011;64862;54.398;10.126;2023-04-03T23:34:26;3.80;;;1.20;;
16967;SDS011;64862;54.398;10.126;2023-04-03T23:44:29;5.45;;;1.40;;
16967;SDS011;64862;54.398;10.126;2023-04-03T23:54:31;7.10;;;1.55;;
